Quincy, IL

3:16 PM CDT on April 19, 2015 (GMT -0500)
Quincy Regional-Baldwin | | Change Station
CLOSE
Current Station
Airport
Location: Quincy,
Elevation: 768 ft
Nearby Weather Stations

Elev 768 ft 39.94 °N, 91.19 °W | Updated 22 minutes ago

Mostly Cloudy
Mostly Cloudy
67 °F
Feels Like 67 °F
N
4
Wind Variable Wind from SSW

Today
High -- | Low -- °F
--% Chance of Precip.
Yesterday
High -- | Low -- °F
Precip. -- in
6:22 AM 7:47 PM
New Moon, 2% visible
Pressure 29.52 in
Visibility 10.0 miles
Clouds Few 4800 ft
Scattered Clouds 6000 ft
Overcast 10000 ft
Dew Point 56 °F
Humidity 68%
Rainfall 0.00 in
Snow Depth Not available.
UV 2 out of 12
Pollen 2.60 out of 12
Air Quality Not available.
Flu Activity Regional
METAR KUIN 191954Z AUTO 21003KT 10SM -RA FEW048 SCT060 OVC100 19/13 A2954 RMK AO2 RAB28 SLP997 P0000 T01940133

More Conditions Fewer Conditions

Pressure 29.52 in
Visibility 10.0 miles
Clouds Few 4800 ft
Scattered Clouds 6000 ft
Overcast 10000 ft
Dew Point 56 °F
Humidity 68%
Rainfall 0.00 in
Snow Depth Not available.
UV 2 out of 12
Pollen 2.60 out of 12
Air Quality Not available.
Flu Activity Regional
METAR KUIN 191954Z AUTO 21003KT 10SM -RA FEW048 SCT060 OVC100 19/13 A2954 RMK AO2 RAB28 SLP997 P0000 T01940133

More Conditions Fewer Conditions

10-Day Weather Forecast

Almanac

Astronomy

Apr. 19, 2015 Rise Set
Actual Time
Civil Twilight
Nautical Twilight
Astronomical Twilight
Moon
Length of Visible Light
Length of Day
Tomorrow will be .
, % of the Moon is Illuminated

Today's Extremes

State Highs State Lows

Community

WunderPhotos

Upload Photos

1,814,963 photos uploaded!

WunderBlogs® & News

Nearby

Air Quality

  Air Quality AQ Index Pollutant
Not available.

Snow Depth

Station Depth Elevation

Earthquake Activity

City Distance Mag. Time & Date
Minimum magnitude displayed is 2.5.

Coastal Water Temperatures

Place Temperature

Stations

Nearby Weather Stations

Station Location Temp. Windchill Dew Point Humidity Wind Precip. Elev Updated Type